Time;durP1;ratioP1;P1;durP2;ratioP2;P2;SDS_P1;SDS_P2;PMS_P1;PMS_P2;Temp;Humidity;BMP_temperature;BMP_pressure;BME280_temperature;BME280_humidity;BME280_pressure;Samples;Min_cycle;Max_cycle;Signal;HPM_P1;HPM_P2
2022/06/02 00:01:06;;;;;;;0.70;0.50;;;11.10;99.90;;;;;;4954914;28;20421;-73
2022/06/02 00:03:56;;;;;;;0.70;0.50;;;11.10;99.90;;;;;;4955127;28;20438;-74
2022/06/02 00:06:44;;;;;;;0.80;0.63;;;11.10;99.90;;;;;;4955292;28;20510;-74
2022/06/02 00:09:27;;;;;;;0.70;0.50;;;11.00;99.90;;;;;;4955173;28;20441;-74
2022/06/02 00:12:23;;;;;;;0.80;0.60;;;11.00;99.90;;;;;;4954773;28;20410;-74
2022/06/02 00:15:07;;;;;;;0.80;0.60;;;10.90;99.90;;;;;;4957455;28;20966;-74
2022/06/02 00:17:42;;;;;;;0.90;0.77;;;10.90;99.90;;;;;;4959126;28;20564;-74
2022/06/02 00:20:20;;;;;;;4.20;1.00;;;10.90;99.90;;;;;;4957483;28;20517;-74
2022/06/02 00:22:56;;;;;;;0.70;0.60;;;10.90;99.90;;;;;;4958880;28;20425;-74
2022/06/02 00:25:32;;;;;;;0.80;0.60;;;10.80;99.90;;;;;;4958913;28;20406;-75
2022/06/02 00:28:22;;;;;;;0.87;0.60;;;10.80;99.90;;;;;;4958906;28;20508;-74
2022/06/02 00:31:24;;;;;;;0.70;0.50;;;10.80;99.90;;;;;;4957893;28;20429;-74
2022/06/02 00:34:03;;;;;;;0.70;0.50;;;10.70;99.90;;;;;;4959074;28;20405;-74
2022/06/02 00:36:51;;;;;;;0.70;0.50;;;10.70;99.90;;;;;;4957855;28;20456;-74
2022/06/02 00:39:19;;;;;;;0.70;0.50;;;10.70;99.90;;;;;;4957908;28;20732;-74
2022/06/02 00:42:13;;;;;;;0.80;0.67;;;10.60;99.90;;;;;;4957951;28;20414;-74
2022/06/02 00:44:55;;;;;;;0.80;0.60;;;10.60;99.90;;;;;;4958488;29;20414;-74
2022/06/02 00:47:52;;;;;;;2.40;0.70;;;10.60;99.90;;;;;;4961483;28;20441;-74
2022/06/02 00:50:23;;;;;;;0.70;0.60;;;10.50;99.90;;;;;;4958845;28;20436;-73
2022/06/02 00:53:17;;;;;;;0.90;0.67;;;10.50;99.90;;;;;;4958141;28;20398;-74
2022/06/02 00:58:51;;;;;;;0.90;0.60;;;10.50;99.90;;;;;;4960110;29;20441;-74
2022/06/02 01:01:33;;;;;;;0.70;0.50;;;10.40;99.90;;;;;;4958973;28;20434;-74
2022/06/02 01:04:02;;;;;;;0.70;0.50;;;10.40;99.90;;;;;;4959497;28;20398;-74
2022/06/02 01:07:01;;;;;;;0.70;0.50;;;10.40;99.90;;;;;;4959869;28;20410;-75
2022/06/02 01:09:27;;;;;;;0.80;0.60;;;10.30;99.90;;;;;;4958739;28;20413;-74
2022/06/02 01:12:33;;;;;;;0.70;0.50;;;10.30;99.90;;;;;;4957652;28;20402;-74
2022/06/02 01:15:11;;;;;;;1.90;0.70;;;10.30;99.90;;;;;;4958130;28;20268;-74
2022/06/02 01:17:57;;;;;;;0.70;0.50;;;10.30;99.90;;;;;;4957440;29;20429;-74
2022/06/02 01:20:51;;;;;;;0.70;0.60;;;10.20;99.90;;;;;;4958024;28;20453;-75
2022/06/02 01:23:28;;;;;;;0.70;0.50;;;10.20;99.90;;;;;;4958010;28;20409;-74
2022/06/02 01:26:09;;;;;;;1.00;0.70;;;10.20;99.90;;;;;;4957474;28;20437;-75
2022/06/02 01:28:52;;;;;;;0.70;0.50;;;10.10;99.90;;;;;;4957739;28;20449;-74
2022/06/02 01:31:34;;;;;;;0.70;0.50;;;10.10;99.90;;;;;;4955692;28;21010;-75
2022/06/02 01:34:24;;;;;;;0.70;0.57;;;10.10;99.90;;;;;;4957681;28;20404;-74
2022/06/02 01:37:09;;;;;;;2.10;0.80;;;10.00;99.90;;;;;;4956931;28;20460;-74
2022/06/02 01:39:46;;;;;;;0.70;0.50;;;10.00;99.90;;;;;;4958631;28;20402;-74
2022/06/02 01:42:33;;;;;;;0.70;0.57;;;9.90;99.90;;;;;;4958233;28;20441;-74
2022/06/02 01:45:19;;;;;;;2.20;1.17;;;9.90;99.90;;;;;;4974225;28;20418;-75
2022/06/02 01:47:50;;;;;;;0.90;0.80;;;9.80;99.90;;;;;;4959377;28;20441;-74
2022/06/02 01:50:36;;;;;;;0.70;0.53;;;9.70;99.90;;;;;;4960901;28;20967;-74
2022/06/02 01:53:21;;;;;;;0.70;0.50;;;9.70;99.90;;;;;;4962831;28;20433;-74
2022/06/02 01:56:14;;;;;;;0.70;0.50;;;9.70;99.90;;;;;;4958200;28;20453;-74
2022/06/02 01:59:04;;;;;;;1.03;0.93;;;9.60;99.90;;;;;;4959230;28;20394;-74
2022/06/02 02:02:03;;;;;;;0.70;0.50;;;9.60;99.90;;;;;;4958761;29;20994;-73
2022/06/02 02:04:34;;;;;;;0.70;0.50;;;9.60;99.90;;;;;;4959384;28;20457;-74
2022/06/02 02:07:17;;;;;;;0.80;0.70;;;9.50;99.90;;;;;;4959148;28;20406;-74
2022/06/02 02:10:09;;;;;;;0.70;0.50;;;9.50;99.90;;;;;;4957788;28;20425;-74
2022/06/02 02:12:54;;;;;;;0.70;0.50;;;9.50;99.90;;;;;;4957363;28;20410;-75
2022/06/02 02:15:47;;;;;;;0.90;0.60;;;9.40;99.90;;;;;;4957804;28;20977;-75
2022/06/02 02:18:16;;;;;;;0.80;0.70;;;9.40;99.90;;;;;;4957639;28;20421;-74
2022/06/02 02:21:05;;;;;;;2.57;0.67;;;9.40;99.90;;;;;;4957554;28;20880;-75
2022/06/02 02:23:56;;;;;;;0.77;0.50;;;9.40;99.90;;;;;;4957867;28;20815;-75
2022/06/02 02:26:37;;;;;;;0.70;0.50;;;9.40;99.90;;;;;;4957774;28;20405;-75
2022/06/02 02:29:20;;;;;;;1.10;1.00;;;9.40;99.90;;;;;;4957905;28;20409;-74
2022/06/02 02:32:11;;;;;;;0.70;0.50;;;9.40;99.90;;;;;;4957514;28;20405;-72
2022/06/02 02:34:59;;;;;;;1.10;0.73;;;9.30;99.90;;;;;;4956255;28;20428;-74
2022/06/02 02:37:28;;;;;;;1.73;0.97;;;9.30;99.90;;;;;;4957118;28;20410;-75
2022/06/02 02:39:59;;;;;;;2.50;0.67;;;9.30;99.90;;;;;;4957181;28;20462;-75
2022/06/02 02:43:05;;;;;;;0.70;0.50;;;9.30;99.90;;;;;;4955710;29;20429;-74
2022/06/02 02:45:46;;;;;;;4.73;1.10;;;9.30;99.90;;;;;;4957331;28;20433;-74
2022/06/02 02:48:38;;;;;;;1.10;0.70;;;9.30;99.90;;;;;;4958452;28;20414;-75
2022/06/02 02:51:27;;;;;;;0.70;0.50;;;9.30;99.90;;;;;;4953445;29;20882;-75
2022/06/02 02:54:36;;;;;;;0.70;0.60;;;9.30;99.90;;;;;;4957160;28;20401;-75
2022/06/02 02:57:14;;;;;;;0.70;0.50;;;9.30;99.90;;;;;;4957220;29;20484;-75
2022/06/02 02:59:55;;;;;;;0.70;0.50;;;9.30;99.90;;;;;;4957649;28;20410;-75
2022/06/02 03:02:50;;;;;;;0.80;0.60;;;9.30;99.90;;;;;;4957292;28;20402;-72
2022/06/02 03:05:41;;;;;;;0.70;0.50;;;9.30;99.90;;;;;;4952812;29;20445;-74
2022/06/02 03:08:34;;;;;;;0.70;0.60;;;9.30;99.90;;;;;;4972592;28;20496;-75
2022/06/02 03:11:14;;;;;;;2.53;0.80;;;9.40;99.90;;;;;;4954149;28;20438;-75
2022/06/02 03:13:58;;;;;;;0.70;0.60;;;9.40;99.90;;;;;;4958119;28;20959;-75
2022/06/02 03:16:24;;;;;;;1.17;0.70;;;9.40;99.90;;;;;;4957375;28;20575;-75
2022/06/02 03:19:25;;;;;;;1.37;1.10;;;9.40;99.90;;;;;;4957226;28;20409;-74
2022/06/02 03:22:16;;;;;;;1.27;0.67;;;9.40;99.90;;;;;;4958154;28;20587;-75
2022/06/02 03:24:59;;;;;;;0.70;0.53;;;9.30;99.90;;;;;;4957000;28;20834;-74
2022/06/02 03:27:55;;;;;;;0.70;0.60;;;9.30;99.90;;;;;;4957008;28;20463;-75
2022/06/02 03:30:25;;;;;;;1.53;0.70;;;9.20;99.90;;;;;;4957384;28;20461;-75
2022/06/02 03:33:16;;;;;;;1.83;1.00;;;9.20;99.90;;;;;;4957255;28;20449;-75
2022/06/02 03:36:32;;;;;;;1.20;1.10;;;9.10;99.90;;;;;;4957144;28;20453;-73
2022/06/02 03:39:06;;;;;;;0.70;0.50;;;9.10;99.90;;;;;;4945612;28;20432;-73
2022/06/02 03:42:00;;;;;;;0.73;0.60;;;9.00;99.90;;;;;;4957019;28;20774;-75
2022/06/02 03:44:31;;;;;;;0.80;0.60;;;9.00;99.90;;;;;;4957429;28;20405;-73
2022/06/02 03:47:20;;;;;;;1.00;0.80;;;9.00;99.90;;;;;;4957130;28;20811;-75
2022/06/02 03:50:07;;;;;;;0.70;0.50;;;9.00;99.90;;;;;;4958835;28;20469;-74
2022/06/02 03:52:35;;;;;;;0.70;0.50;;;9.00;99.90;;;;;;4960531;28;20410;-74
2022/06/02 03:55:16;;;;;;;0.70;0.60;;;8.90;99.90;;;;;;4960638;28;20485;-74
2022/06/02 03:58:07;;;;;;;0.80;0.70;;;8.90;99.90;;;;;;4960485;28;20943;-73
2022/06/02 04:00:44;;;;;;;0.80;0.60;;;8.90;99.90;;;;;;4960324;28;20437;-72
2022/06/02 04:03:20;;;;;;;0.90;0.80;;;9.00;99.90;;;;;;4959359;28;20413;-74
2022/06/02 04:06:08;;;;;;;0.70;0.50;;;9.00;99.90;;;;;;4960893;28;20411;-74
2022/06/02 04:09:09;;;;;;;0.70;0.50;;;9.00;99.90;;;;;;4960732;28;20468;-74
2022/06/02 04:14:36;;;;;;;0.70;0.60;;;9.00;99.90;;;;;;4960104;29;20405;-72
2022/06/02 04:17:26;;;;;;;0.70;0.50;;;9.10;99.90;;;;;;4961023;28;20429;-74
2022/06/02 04:23:19;;;;;;;0.70;0.50;;;9.20;99.90;;;;;;4961177;29;20403;-74
2022/06/02 04:25:55;;;;;;;0.97;0.80;;;9.20;99.90;;;;;;4950319;28;20938;-74
2022/06/02 04:28:33;;;;;;;0.70;0.53;;;9.20;99.90;;;;;;4961203;28;20402;-74
2022/06/02 04:31:25;;;;;;;0.70;0.50;;;9.30;99.90;;;;;;4960499;28;20422;-73
2022/06/02 04:34:14;;;;;;;0.80;0.60;;;9.30;99.90;;;;;;4960953;28;20834;-74
2022/06/02 04:36:57;;;;;;;0.70;0.50;;;9.40;99.90;;;;;;4960663;28;20517;-73
2022/06/02 04:39:36;;;;;;;1.23;0.60;;;9.40;99.90;;;;;;4960780;28;20402;-74
2022/06/02 04:42:16;;;;;;;0.93;0.93;;;9.50;99.90;;;;;;4959285;28;20410;-73
2022/06/02 04:44:53;;;;;;;0.80;0.70;;;9.50;99.90;;;;;;4959784;28;20521;-73
2022/06/02 04:47:48;;;;;;;0.70;0.50;;;9.60;99.90;;;;;;4959246;28;20451;-74
2022/06/02 04:50:45;;;;;;;0.80;0.60;;;9.70;99.90;;;;;;4961170;28;20449;-73
2022/06/02 04:53:24;;;;;;;0.70;0.60;;;9.80;99.90;;;;;;4959544;29;20472;-74
2022/06/02 04:56:07;;;;;;;1.57;1.03;;;9.80;99.90;;;;;;4961348;28;20875;-74
2022/06/02 04:58:58;;;;;;;0.70;0.50;;;9.90;99.90;;;;;;4960924;28;20461;-75
2022/06/02 05:02:03;;;;;;;0.70;0.50;;;10.00;99.90;;;;;;4959680;28;20414;-75
2022/06/02 05:04:53;;;;;;;1.00;0.70;;;10.10;99.90;;;;;;4959398;28;20417;-74
2022/06/02 05:07:27;;;;;;;1.17;1.07;;;10.20;99.90;;;;;;4961240;28;20413;-74
2022/06/02 05:10:06;;;;;;;0.90;0.80;;;10.20;99.90;;;;;;4960787;28;20441;-74
2022/06/02 05:12:49;;;;;;;0.70;0.63;;;10.30;99.90;;;;;;4961191;28;20398;-75
2022/06/02 05:15:22;;;;;;;0.70;0.50;;;10.50;99.90;;;;;;4961102;28;20453;-74
2022/06/02 05:18:08;;;;;;;1.03;0.90;;;10.60;99.90;;;;;;4960552;28;20438;-74
2022/06/02 05:20:58;;;;;;;0.80;0.70;;;10.70;99.90;;;;;;4961301;28;20436;-74
2022/06/02 05:23:45;;;;;;;1.10;0.80;;;10.80;99.90;;;;;;4961147;28;20410;-75
2022/06/02 05:26:20;;;;;;;0.70;0.50;;;10.90;99.90;;;;;;4961019;28;20446;-75
2022/06/02 05:29:23;;;;;;;0.87;0.77;;;11.00;99.90;;;;;;4961082;28;20409;-75
2022/06/02 05:32:06;;;;;;;0.90;0.60;;;11.20;99.90;;;;;;4961196;28;20401;-74
2022/06/02 05:34:44;;;;;;;2.27;1.17;;;11.30;99.90;;;;;;4961561;28;20406;-75
2022/06/02 05:37:25;;;;;;;0.70;0.60;;;11.40;99.90;;;;;;4960055;28;20417;-74
2022/06/02 05:40:14;;;;;;;0.70;0.60;;;11.60;99.90;;;;;;4959758;28;20430;-75
2022/06/02 05:42:55;;;;;;;1.20;0.90;;;11.70;99.90;;;;;;4960816;28;20398;-75
2022/06/02 05:45:23;;;;;;;0.70;0.60;;;11.90;99.90;;;;;;4961453;28;20421;-75
2022/06/02 05:48:30;;;;;;;0.90;0.70;;;12.00;99.90;;;;;;4959662;29;20493;-75
2022/06/02 05:51:18;;;;;;;1.00;0.70;;;12.20;99.90;;;;;;4951534;29;20434;-75
2022/06/02 05:54:02;;;;;;;0.73;0.50;;;12.40;99.90;;;;;;4961327;28;20752;-75
2022/06/02 05:56:55;;;;;;;0.70;0.50;;;12.60;99.90;;;;;;4959537;29;20548;-75
2022/06/02 05:59:37;;;;;;;0.87;0.60;;;12.70;99.90;;;;;;4960661;28;20406;-74
2022/06/02 06:02:13;;;;;;;0.70;0.50;;;12.90;99.90;;;;;;4960448;28;20394;-75
2022/06/02 06:05:08;;;;;;;1.10;0.70;;;13.10;99.90;;;;;;4960910;28;20402;-75
2022/06/02 06:07:47;;;;;;;0.80;0.63;;;13.40;99.90;;;;;;4960602;28;20394;-74
2022/06/02 06:10:16;;;;;;;1.17;0.70;;;13.60;99.90;;;;;;4959950;28;20556;-74
2022/06/02 06:12:56;;;;;;;1.00;0.70;;;13.90;99.90;;;;;;4958091;28;20420;-73
2022/06/02 06:15:37;;;;;;;0.80;0.63;;;14.30;99.90;;;;;;4960066;28;20457;-74
2022/06/02 06:18:02;;;;;;;0.80;0.63;;;14.80;99.90;;;;;;4960711;28;20426;-75
2022/06/02 06:20:45;;;;;;;1.50;0.90;;;15.30;99.90;;;;;;4960038;28;20839;-74
2022/06/02 06:23:24;;;;;;;2.87;1.93;;;15.70;99.90;;;;;;4958871;28;20182;-75
2022/06/02 06:26:11;;;;;;;1.00;0.90;;;16.30;99.90;;;;;;4959491;28;20820;-74
2022/06/02 06:28:45;;;;;;;2.23;1.27;;;16.70;99.90;;;;;;4959820;28;20420;-74
2022/06/02 06:31:36;;;;;;;1.47;0.80;;;17.30;99.90;;;;;;4960095;28;20536;-74
2022/06/02 06:34:16;;;;;;;1.00;0.87;;;17.80;99.90;;;;;;4961182;28;20924;-75
2022/06/02 06:37:00;;;;;;;1.20;0.93;;;18.40;99.90;;;;;;4959117;28;20472;-75
2022/06/02 06:39:44;;;;;;;1.73;0.90;;;18.90;99.90;;;;;;4960027;28;20421;-74
2022/06/02 06:42:42;;;;;;;2.40;1.10;;;19.60;99.90;;;;;;4961631;28;20789;-75
2022/06/02 06:45:20;;;;;;;2.87;1.70;;;20.10;99.90;;;;;;4952500;29;20506;-75
2022/06/02 06:47:53;;;;;;;2.00;1.17;;;20.70;99.90;;;;;;4959326;28;20406;-75
2022/06/02 06:50:29;;;;;;;1.20;1.10;;;21.20;99.90;;;;;;4961378;28;20460;-75
2022/06/02 06:53:17;;;;;;;1.67;1.53;;;21.80;99.90;;;;;;4961127;28;20501;-75
2022/06/02 06:55:59;;;;;;;1.57;1.37;;;22.40;99.90;;;;;;4960171;28;20986;-75
2022/06/02 06:58:45;;;;;;;1.40;1.27;;;23.00;99.90;;;;;;4960955;28;20417;-75
2022/06/02 07:01:42;;;;;;;1.57;1.43;;;23.60;99.90;;;;;;4959904;28;20425;-75
2022/06/02 07:04:26;;;;;;;3.40;2.30;;;24.30;99.90;;;;;;4959755;29;20410;-75
2022/06/02 07:06:57;;;;;;;6.40;2.47;;;24.80;99.90;;;;;;4958122;28;20409;-75
2022/06/02 07:09:32;;;;;;;1.80;1.70;;;25.30;99.90;;;;;;4958026;28;20413;-75
2022/06/02 07:15:21;;;;;;;1.83;1.63;;;26.30;99.90;;;;;;4958993;29;20404;-75
2022/06/02 07:17:54;;;;;;;4.70;1.60;;;27.30;99.90;;;;;;4957362;29;20513;-75
2022/06/02 07:20:54;;;;;;;1.20;1.10;;;28.20;99.90;;;;;;4962046;28;20446;-75
2022/06/02 07:23:42;;;;;;;1.47;1.37;;;29.10;97.20;;;;;;4963029;28;20495;-73
2022/06/02 07:26:30;;;;;;;3.73;1.90;;;30.30;93.50;;;;;;4966992;28;20412;-75
2022/06/02 07:29:22;;;;;;;1.53;1.43;;;31.30;89.00;;;;;;4965670;28;20412;-73
2022/06/02 07:32:11;;;;;;;1.60;1.30;;;32.30;79.50;;;;;;4966250;28;20405;-75
2022/06/02 07:35:14;;;;;;;2.03;1.47;;;33.30;67.60;;;;;;4956111;29;20421;-72
2022/06/02 07:37:54;;;;;;;2.83;1.73;;;34.20;58.70;;;;;;4966706;28;20828;-72
2022/06/02 07:40:19;;;;;;;1.23;1.00;;;35.10;54.40;;;;;;4964548;28;20425;-72
2022/06/02 07:42:57;;;;;;;1.27;1.17;;;35.80;52.10;;;;;;4963298;29;20411;-73
2022/06/02 07:45:55;;;;;;;1.20;1.10;;;36.70;50.90;;;;;;4980496;28;20656;-73
2022/06/02 07:48:24;;;;;;;1.10;1.00;;;37.70;48.40;;;;;;4956410;29;20923;-73
2022/06/02 07:50:57;;;;;;;1.80;1.60;;;38.80;46.50;;;;;;4965075;28;20421;-74
2022/06/02 07:53:37;;;;;;;1.03;0.93;;;39.70;44.60;;;;;;4977454;28;20445;-74
2022/06/02 07:56:18;;;;;;;1.50;1.17;;;40.50;42.50;;;;;;4963754;28;20445;-73
2022/06/02 07:59:14;;;;;;;1.20;1.10;;;41.50;40.60;;;;;;4963820;28;20753;-75
2022/06/02 08:02:24;;;;;;;1.07;0.97;;;42.40;39.00;;;;;;4964340;28;20429;-74
2022/06/02 08:05:27;;;;;;;1.20;1.10;;;43.50;37.80;;;;;;4965180;28;20409;-74
2022/06/02 08:08:01;;;;;;;1.20;1.10;;;44.50;36.60;;;;;;4964600;28;20429;-71
2022/06/02 08:11:04;;;;;;;1.67;1.57;;;45.30;35.00;;;;;;4963469;28;20421;-74
2022/06/02 08:14:00;;;;;;;1.60;1.50;;;46.00;32.00;;;;;;4963165;28;20420;-74
2022/06/02 08:16:43;;;;;;;1.33;1.23;;;46.40;30.20;;;;;;4964729;28;20404;-73
2022/06/02 08:19:36;;;;;;;1.47;1.37;;;47.10;30.10;;;;;;4962236;28;20556;-73
2022/06/02 08:22:08;;;;;;;1.70;1.60;;;47.80;29.90;;;;;;4962846;29;20379;-74
2022/06/02 08:25:10;;;;;;;2.20;2.00;;;48.60;29.50;;;;;;4962729;28;20377;-73
2022/06/02 08:27:52;;;;;;;2.23;1.83;;;49.30;28.90;;;;;;4962957;28;20783;-74
2022/06/02 08:30:36;;;;;;;2.23;2.10;;;50.10;28.50;;;;;;4963783;28;20421;-73
2022/06/02 08:33:28;;;;;;;1.40;1.30;;;50.50;27.80;;;;;;4961936;28;20391;-74
2022/06/02 08:36:14;;;;;;;1.30;1.20;;;49.50;27.40;;;;;;4960500;28;20398;-73
2022/06/02 08:38:50;;;;;;;1.40;1.30;;;47.70;27.50;;;;;;4959567;28;20442;-74
2022/06/02 08:41:37;;;;;;;1.47;1.37;;;47.40;27.70;;;;;;4959595;28;20496;-72
2022/06/02 08:44:37;;;;;;;1.20;1.10;;;48.20;27.20;;;;;;4959735;28;20392;-74
2022/06/02 08:47:21;;;;;;;1.40;1.30;;;49.70;27.10;;;;;;4962181;28;20963;-74
2022/06/02 08:50:10;;;;;;;1.40;1.30;;;51.30;26.50;;;;;;4960700;28;20505;-74
2022/06/02 08:53:20;;;;;;;1.73;1.63;;;52.80;25.90;;;;;;4961467;29;20380;-74
2022/06/02 08:56:23;;;;;;;1.60;1.50;;;53.80;25.00;;;;;;4961327;28;20372;-74
2022/06/02 08:59:07;;;;;;;1.70;1.60;;;54.40;23.90;;;;;;4961108;28;20452;-74
2022/06/02 09:01:58;;;;;;;1.60;1.50;;;53.00;23.50;;;;;;4959442;28;20432;-74
2022/06/02 09:04:36;;;;;;;1.67;1.57;;;51.20;23.80;;;;;;4959020;28;20886;-73
2022/06/02 09:07:32;;;;;;;1.30;1.20;;;50.70;23.60;;;;;;4958626;28;20473;-74
2022/06/02 09:10:20;;;;;;;1.40;1.30;;;50.00;23.60;;;;;;4958123;29;20436;-74
2022/06/02 09:13:04;;;;;;;1.60;1.50;;;49.20;24.00;;;;;;4958111;28;20391;-74
2022/06/02 09:16:04;;;;;;;1.40;1.30;;;49.60;23.90;;;;;;4958928;28;20437;-74
2022/06/02 09:19:01;;;;;;;1.40;1.30;;;48.20;23.20;;;;;;4938661;28;20466;-74
2022/06/02 09:21:46;;;;;;;1.57;1.47;;;47.60;24.10;;;;;;4958133;28;20455;-74
2022/06/02 09:24:44;;;;;;;1.60;1.50;;;48.20;24.00;;;;;;4957276;29;21101;-74
2022/06/02 09:27:47;;;;;;;1.20;1.10;;;48.30;24.00;;;;;;4957368;29;20426;-74
2022/06/02 09:30:15;;;;;;;1.53;1.43;;;47.60;23.70;;;;;;4957977;28;20408;-74
2022/06/02 09:33:33;;;;;;;1.67;1.57;;;45.70;23.40;;;;;;4957018;28;20373;-73
2022/06/02 09:36:36;;;;;;;1.50;1.40;;;44.50;23.90;;;;;;4958378;28;20499;-74
2022/06/02 09:39:20;;;;;;;1.60;1.50;;;45.50;24.50;;;;;;4957340;28;20805;-74
2022/06/02 09:42:15;;;;;;;1.50;1.40;;;47.00;24.30;;;;;;4958183;28;20428;-75
2022/06/02 09:45:16;;;;;;;1.50;1.40;;;48.50;24.00;;;;;;4958685;28;20405;-74
2022/06/02 09:48:20;;;;;;;1.50;1.40;;;47.90;23.60;;;;;;4956977;28;20410;-75
2022/06/02 09:51:08;;;;;;;1.73;1.60;;;46.20;23.80;;;;;;4957522;29;20399;-73
2022/06/02 09:53:59;;;;;;;1.40;1.30;;;46.10;24.50;;;;;;4956319;28;21066;-74
2022/06/02 09:56:27;;;;;;;1.30;1.20;;;47.00;24.40;;;;;;4957592;28;20406;-75
2022/06/02 09:59:24;;;;;;;1.40;1.30;;;47.70;24.40;;;;;;4958064;28;20463;-74
2022/06/02 10:02:17;;;;;;;1.37;1.27;;;48.50;24.10;;;;;;4953101;29;20425;-73
2022/06/02 10:05:11;;;;;;;1.43;1.33;;;47.50;23.90;;;;;;4957358;28;20401;-74
2022/06/02 10:07:49;;;;;;;1.73;1.63;;;45.70;24.00;;;;;;4958667;28;20893;-75
2022/06/02 10:10:48;;;;;;;1.57;1.47;;;43.80;24.50;;;;;;4959798;28;20505;-74
2022/06/02 10:13:16;;;;;;;1.40;1.30;;;42.10;25.00;;;;;;4960515;28;20669;-74
2022/06/02 10:16:03;;;;;;;1.27;1.17;;;42.10;25.90;;;;;;4959612;28;20882;-72
2022/06/02 10:18:35;;;;;;;1.40;1.23;;;43.80;26.20;;;;;;4959829;28;20426;-74
2022/06/02 10:21:31;;;;;;;1.20;1.10;;;44.90;25.60;;;;;;4957901;28;20503;-74
2022/06/02 10:24:03;;;;;;;1.50;1.40;;;44.10;24.90;;;;;;4960759;28;20381;-73
2022/06/02 10:26:44;;;;;;;1.20;1.10;;;42.90;24.90;;;;;;4959386;29;20815;-73
2022/06/02 10:29:15;;;;;;;1.20;1.10;;;42.00;25.40;;;;;;4961569;28;20376;-74
2022/06/02 10:32:16;;;;;;;1.47;1.37;;;42.60;26.00;;;;;;4959548;28;20442;-73
2022/06/02 10:34:56;;;;;;;1.50;1.40;;;44.50;25.90;;;;;;4950906;28;20494;-75
2022/06/02 10:37:47;;;;;;;1.60;1.50;;;46.60;25.10;;;;;;4958051;28;20377;-74
2022/06/02 10:40:48;;;;;;;1.50;1.40;;;48.50;24.50;;;;;;4960170;28;20418;-73
2022/06/02 10:43:37;;;;;;;1.90;1.40;;;50.30;24.30;;;;;;4954882;29;20469;-74
2022/06/02 10:46:09;;;;;;;1.60;1.50;;;52.10;23.80;;;;;;4958659;28;20449;-74
2022/06/02 10:48:34;;;;;;;1.80;1.70;;;53.30;23.60;;;;;;4958894;28;20791;-73
2022/06/02 10:51:26;;;;;;;1.83;1.73;;;54.40;23.30;;;;;;4957423;29;20430;-75
2022/06/02 10:54:29;;;;;;;1.93;1.83;;;55.30;23.10;;;;;;4957697;29;20571;-74
2022/06/02 10:57:29;;;;;;;2.03;1.93;;;56.20;22.80;;;;;;4958891;28;20896;-74
2022/06/02 11:00:07;;;;;;;2.30;2.20;;;56.90;22.50;;;;;;4960963;28;20401;-74
2022/06/02 11:03:00;;;;;;;2.17;2.07;;;57.50;22.20;;;;;;4959946;28;20421;-74
2022/06/02 11:05:47;;;;;;;2.13;2.03;;;58.10;22.00;;;;;;4961323;28;20461;-74
2022/06/02 11:08:34;;;;;;;2.37;2.27;;;58.60;21.80;;;;;;4964790;28;20398;-73
2022/06/02 11:11:16;;;;;;;2.20;2.10;;;59.10;21.30;;;;;;4962963;28;20426;-73
2022/06/02 11:14:00;;;;;;;2.60;2.50;;;59.40;21.20;;;;;;4963731;28;20771;-74
2022/06/02 11:17:04;;;;;;;2.73;2.63;;;59.60;21.10;;;;;;4965143;28;20441;-74
2022/06/02 11:19:47;;;;;;;2.70;2.60;;;59.90;20.80;;;;;;4961437;29;20429;-74
2022/06/02 11:22:59;;;;;;;3.33;3.23;;;60.10;20.80;;;;;;4963279;28;20460;-74
2022/06/02 11:25:30;;;;;;;2.70;2.60;;;60.10;20.60;;;;;;4941963;29;20446;-74
2022/06/02 11:28:17;;;;;;;3.53;3.43;;;60.20;20.40;;;;;;4970414;28;20425;-73
2022/06/02 11:31:13;;;;;;;2.90;2.80;;;60.20;20.20;;;;;;4961689;28;20454;-75
2022/06/02 11:33:48;;;;;;;2.90;2.80;;;60.10;20.20;;;;;;4964015;28;20456;-74
2022/06/02 11:36:21;;;;;;;2.67;2.57;;;60.10;20.20;;;;;;4959969;28;20413;-74
2022/06/02 11:38:55;;;;;;;2.80;2.70;;;60.10;20.00;;;;;;4962360;28;20503;-73
2022/06/02 11:41:30;;;;;;;2.80;2.70;;;60.10;19.80;;;;;;4961993;28;20471;-75
2022/06/02 11:44:33;;;;;;;2.70;2.60;;;60.20;19.80;;;;;;4961078;28;20440;-74
2022/06/02 11:47:31;;;;;;;2.60;2.50;;;60.10;19.70;;;;;;4938998;29;20480;-74
2022/06/02 11:50:26;;;;;;;2.73;2.63;;;59.90;19.60;;;;;;4969439;28;20437;-74
2022/06/02 11:53:15;;;;;;;2.60;2.50;;;60.00;19.60;;;;;;4960276;28;20417;-75
2022/06/02 11:55:56;;;;;;;2.83;2.73;;;60.10;19.60;;;;;;4959250;28;20402;-74
2022/06/02 11:58:24;;;;;;;2.50;2.40;;;59.40;19.30;;;;;;4955136;28;20420;-74
2022/06/02 12:01:15;;;;;;;2.27;2.17;;;58.60;19.30;;;;;;4956866;29;20445;-74
2022/06/02 12:04:01;;;;;;;2.23;2.13;;;57.10;19.20;;;;;;4956578;28;20410;-74
2022/06/02 12:06:32;;;;;;;2.03;1.93;;;55.00;19.20;;;;;;4957260;28;20938;-75
2022/06/02 12:09:10;;;;;;;1.80;1.70;;;53.00;19.30;;;;;;4954577;28;20445;-74
2022/06/02 12:12:09;;;;;;;1.63;1.53;;;51.40;19.60;;;;;;4958208;28;20430;-73
2022/06/02 12:15:06;;;;;;;1.70;1.60;;;49.70;19.80;;;;;;4972923;28;20416;-73
2022/06/02 12:18:01;;;;;;;1.20;1.10;;;48.00;20.00;;;;;;4957668;28;20475;-73
2022/06/02 12:20:57;;;;;;;1.20;1.10;;;46.50;20.40;;;;;;4958681;28;20396;-73
2022/06/02 12:23:23;;;;;;;1.20;1.10;;;45.40;20.90;;;;;;4956870;29;20871;-71
2022/06/02 12:25:55;;;;;;;1.57;1.30;;;45.30;21.30;;;;;;4957826;28;20445;-73
2022/06/02 12:28:41;;;;;;;1.70;1.57;;;46.00;21.60;;;;;;4957332;29;20464;-73
2022/06/02 12:31:12;;;;;;;1.23;1.13;;;46.60;21.50;;;;;;4972919;28;20426;-73
2022/06/02 12:34:00;;;;;;;1.20;1.10;;;47.10;21.60;;;;;;4958254;28;20408;-73
2022/06/02 12:36:44;;;;;;;1.40;1.30;;;48.00;21.70;;;;;;4959305;28;20508;-72
2022/06/02 12:39:12;;;;;;;1.30;1.20;;;49.20;21.60;;;;;;4958821;28;21005;-72
2022/06/02 12:41:53;;;;;;;1.93;1.60;;;50.10;21.50;;;;;;4960768;28;20815;-72
2022/06/02 12:44:40;;;;;;;1.60;1.50;;;50.70;21.20;;;;;;4958845;28;20381;-73
2022/06/02 12:47:26;;;;;;;1.50;1.40;;;51.30;21.00;;;;;;4958652;28;20432;-74
2022/06/02 12:50:13;;;;;;;1.40;1.30;;;51.80;20.90;;;;;;4957802;28;20488;-73
2022/06/02 12:52:39;;;;;;;1.50;1.40;;;52.00;20.70;;;;;;4958748;28;20467;-74
2022/06/02 12:55:21;;;;;;;1.60;1.50;;;52.20;20.70;;;;;;4959656;28;20400;-73
2022/06/02 12:58:31;;;;;;;1.57;1.47;;;52.60;20.70;;;;;;4960529;28;20182;-73
2022/06/02 13:01:17;;;;;;;1.60;1.50;;;52.90;20.60;;;;;;4954134;29;20452;-73
2022/06/02 13:04:20;;;;;;;1.60;1.50;;;53.00;20.50;;;;;;4960756;28;20408;-73
2022/06/02 13:06:56;;;;;;;1.53;1.43;;;52.90;20.50;;;;;;4959810;28;20430;-74
2022/06/02 13:09:40;;;;;;;1.40;1.30;;;52.10;20.40;;;;;;4958871;28;20439;-73
2022/06/02 13:12:49;;;;;;;1.40;1.30;;;51.10;20.40;;;;;;4957267;28;20422;-74
2022/06/02 13:15:35;;;;;;;1.30;1.20;;;49.80;20.60;;;;;;4957877;28;20491;-73
2022/06/02 13:18:19;;;;;;;1.30;1.20;;;48.10;20.70;;;;;;4957639;28;20416;-73
2022/06/02 13:21:30;;;;;;;2.13;2.03;;;46.30;21.10;;;;;;4957578;29;20408;-73
2022/06/02 13:24:19;;;;;;;1.30;1.20;;;44.70;21.50;;;;;;4959736;28;20437;-73
2022/06/02 13:26:53;;;;;;;1.30;1.20;;;43.30;22.00;;;;;;4961016;28;20868;-73
2022/06/02 13:29:31;;;;;;;1.20;1.10;;;42.20;22.50;;;;;;4960558;28;20920;-73
2022/06/02 13:32:14;;;;;;;1.20;1.10;;;41.20;23.00;;;;;;4958386;28;20417;-73
2022/06/02 13:34:59;;;;;;;1.57;1.47;;;40.40;23.40;;;;;;4959097;28;20404;-73
2022/06/02 13:37:52;;;;;;;0.90;0.80;;;39.30;23.90;;;;;;4958024;28;20410;-73
2022/06/02 13:40:27;;;;;;;1.17;1.07;;;38.30;24.60;;;;;;4959472;28;20433;-71
2022/06/02 13:43:05;;;;;;;0.90;0.80;;;37.40;24.90;;;;;;4957982;28;20418;-73
2022/06/02 13:46:09;;;;;;;1.10;1.00;;;36.50;25.30;;;;;;4957952;28;20859;-73
2022/06/02 13:49:18;;;;;;;1.10;1.00;;;35.50;25.60;;;;;;4948113;29;20906;-73
2022/06/02 13:52:07;;;;;;;1.10;0.90;;;34.60;26.10;;;;;;4956653;28;20430;-73
2022/06/02 13:57:32;;;;;;;1.37;1.00;;;33.00;26.80;;;;;;4956314;29;20486;-72
2022/06/02 14:00:07;;;;;;;1.20;1.07;;;32.30;27.10;;;;;;4954563;28;20434;-73
2022/06/02 14:02:54;;;;;;;1.00;0.90;;;31.70;27.50;;;;;;4955819;28;20417;-73
2022/06/02 14:05:43;;;;;;;1.20;0.90;;;31.20;28.00;;;;;;4955382;29;20450;-72
2022/06/02 14:08:20;;;;;;;1.17;0.90;;;30.70;28.60;;;;;;4956144;28;20402;-73
2022/06/02 14:10:54;;;;;;;0.90;0.70;;;30.20;29.00;;;;;;4954451;29;20951;-72
2022/06/02 14:13:54;;;;;;;1.43;0.90;;;29.90;29.30;;;;;;4954633;28;20409;-72
2022/06/02 14:16:42;;;;;;;1.00;0.90;;;29.50;29.60;;;;;;4954741;29;20995;-73
2022/06/02 14:19:29;;;;;;;0.90;0.70;;;29.20;29.80;;;;;;4971050;28;20480;-73
2022/06/02 14:22:16;;;;;;;0.90;0.70;;;28.90;30.00;;;;;;4955962;28;20806;-73
2022/06/02 14:25:06;;;;;;;0.93;0.77;;;28.50;30.30;;;;;;4956586;28;20406;-73
2022/06/02 14:27:53;;;;;;;1.00;0.80;;;28.30;30.70;;;;;;4956291;28;20777;-72
2022/06/02 14:30:34;;;;;;;1.10;0.80;;;28.00;31.10;;;;;;4956385;28;20421;-72
2022/06/02 14:33:14;;;;;;;1.00;0.70;;;27.80;31.40;;;;;;4955555;28;20485;-74
2022/06/02 14:36:00;;;;;;;0.97;0.80;;;27.60;31.70;;;;;;4957833;28;20457;-73
2022/06/02 14:38:45;;;;;;;1.10;1.00;;;27.30;32.10;;;;;;4956347;28;20398;-73